Главная страница
METAR-TAF:

METAR-TAF

Аэропорты :

Форт-Мид, Мэриленд, США

широта: 39-05N, долгота: 076-46W, высота над уровнем моря: 46 м

Текущие метеонаблюдения

Эта сводка был подготовлена 30 минут назад, в 20:33 UTC
Ветер 4 Узел от восточно-северо-восточный
Температура 23°C
Влажность 83%
Давление 1019 hPa
Видимость: 16.1 км
Рассеянная облачность на высоте 2100 фута
Сплошная облачность на высоте 2900 фута

METAR: KFME 202033Z AUTO 07004KT 10SM BKN021 OVC029 23/20 A3010 RMK AO1

Время: 17:03 (21:03 UTC)


TAF: отсутствует

Метеонаблюдения и прогнозы для более 4000 аэропортов (сводки METAR и TAF).

Имеющиеся станции представлены на карте желтыми и красными точками.

Чтобы увидеть название станции, наведите на нее мышь.

Затем щелкните, чтобы увидеть метеонаблюдения и метеопрогнозы.

Управление картой: чтобы увеличить масштаб, щелкните зеленые кнопки с черным крестиком; чтобы уменьшить масштаб, щелкните зеленую кнопку с тире; для просмотра соседних карт щелкайте зеленые стрелки.


METAR-TAF: